Time;durP1;ratioP1;P1;durP2;ratioP2;P2;SDS_P1;SDS_P2;PMS_P1;PMS_P2;Temp;Humidity;BMP_temperature;BMP_pressure;BME280_temperature;BME280_humidity;BME280_pressure;Samples;Min_cycle;Max_cycle;Signal;HPM_P1;HPM_P2
2021/09/27 00:02:23;;;;;;;24.50;21.87;;;15.20;99.90;;;;;;5051089;28;20171;-65
2021/09/27 00:04:48;;;;;;;23.10;20.70;;;15.20;99.90;;;;;;5058535;28;20206;-65
2021/09/27 00:07:14;;;;;;;24.53;22.00;;;15.20;99.90;;;;;;5071080;28;20275;-65
2021/09/27 00:09:39;;;;;;;23.33;20.90;;;15.20;99.90;;;;;;5064519;28;20179;-65
2021/09/27 00:12:10;;;;;;;24.17;21.23;;;15.20;99.90;;;;;;5050882;28;20232;-65
2021/09/27 00:14:37;;;;;;;24.47;22.17;;;15.30;99.90;;;;;;5055894;28;20239;-66
2021/09/27 00:17:06;;;;;;;26.40;23.63;;;15.30;99.90;;;;;;5070895;28;20272;-65
2021/09/27 00:19:35;;;;;;;24.77;22.27;;;15.30;99.90;;;;;;5066709;28;20692;-65
2021/09/27 00:22:01;;;;;;;24.73;22.07;;;15.30;99.90;;;;;;5050936;28;20182;-65
2021/09/27 00:24:27;;;;;;;26.30;23.67;;;15.40;99.90;;;;;;5053196;28;20210;-65
2021/09/27 00:26:53;;;;;;;26.33;23.20;;;15.40;99.90;;;;;;5070844;28;20651;-65
2021/09/27 00:29:18;;;;;;;24.97;22.47;;;15.40;99.90;;;;;;5068787;28;20730;-64
2021/09/27 00:31:44;;;;;;;26.27;23.70;;;15.40;99.90;;;;;;5050720;28;20174;-65
2021/09/27 00:34:10;;;;;;;27.20;24.67;;;15.50;99.90;;;;;;5068125;28;20590;-65
2021/09/27 00:36:36;;;;;;;26.40;23.77;;;15.50;99.90;;;;;;5070876;28;20545;-64
2021/09/27 00:39:03;;;;;;;26.33;22.77;;;15.50;99.90;;;;;;5068652;28;20224;-65
2021/09/27 00:41:29;;;;;;;25.33;22.83;;;15.50;99.90;;;;;;5070881;28;20174;-64
2021/09/27 00:43:55;;;;;;;28.00;23.93;;;15.60;99.90;;;;;;5055894;28;20175;-64
2021/09/27 00:46:24;;;;;;;25.60;22.70;;;15.60;99.90;;;;;;5050840;28;20567;-64
2021/09/27 00:48:51;;;;;;;26.00;23.33;;;15.60;99.90;;;;;;5055074;28;20714;-65
2021/09/27 00:51:22;;;;;;;29.30;26.60;;;15.70;99.90;;;;;;5054101;28;20625;-66
2021/09/27 00:54:01;;;;;;;29.80;27.20;;;15.60;99.90;;;;;;5066016;28;20190;-66
2021/09/27 00:56:34;;;;;;;25.77;23.37;;;15.70;99.90;;;;;;5074409;28;20256;-64
2021/09/27 00:59:00;;;;;;;26.57;24.00;;;15.70;99.90;;;;;;5060283;28;20616;-65
2021/09/27 01:01:26;;;;;;;25.60;23.03;;;15.70;99.90;;;;;;5063706;28;20636;-64
2021/09/27 01:03:53;;;;;;;28.67;25.87;;;15.70;99.90;;;;;;5073750;28;20166;-64
2021/09/27 01:06:31;;;;;;;24.57;22.20;;;15.70;99.90;;;;;;5065660;28;20183;-65
2021/09/27 01:09:02;;;;;;;28.17;25.77;;;15.80;99.90;;;;;;5053638;28;20195;-66
2021/09/27 01:11:35;;;;;;;25.70;23.20;;;15.80;99.90;;;;;;5062793;28;20209;-65
2021/09/27 01:14:31;;;;;;;26.70;21.57;;;15.80;99.90;;;;;;5073821;28;20328;-65
2021/09/27 01:17:02;;;;;;;23.60;21.40;;;15.80;99.90;;;;;;5061131;28;20181;-65
2021/09/27 01:20:05;;;;;;;24.23;21.73;;;15.70;99.90;;;;;;5053539;28;20162;-65
2021/09/27 01:22:37;;;;;;;23.80;21.50;;;15.60;99.90;;;;;;5069882;28;20269;-65
2021/09/27 01:25:40;;;;;;;26.23;23.73;;;15.60;99.90;;;;;;5073534;28;20210;-65
2021/09/27 01:28:17;;;;;;;25.50;22.97;;;15.50;99.90;;;;;;5033550;28;20592;-64
2021/09/27 01:31:16;;;;;;;25.93;23.03;;;15.50;99.90;;;;;;5070122;28;20166;-65
2021/09/27 01:34:12;;;;;;;26.20;23.80;;;15.50;99.90;;;;;;5071751;28;20699;-65
2021/09/27 01:37:24;;;;;;;26.73;23.77;;;15.50;99.90;;;;;;5073466;28;20171;-65
2021/09/27 01:40:10;;;;;;;26.23;23.60;;;15.50;99.90;;;;;;4993132;28;20184;-65
2021/09/27 01:43:02;;;;;;;24.93;22.30;;;15.50;99.90;;;;;;4991851;28;20704;-65
2021/09/27 01:45:45;;;;;;;25.87;23.27;;;15.60;99.90;;;;;;5013645;28;20269;-64
2021/09/27 01:48:32;;;;;;;26.00;23.50;;;15.60;99.90;;;;;;5039553;28;20202;-64
2021/09/27 01:51:08;;;;;;;27.63;24.87;;;15.60;99.90;;;;;;5072765;28;20222;-64
2021/09/27 01:53:56;;;;;;;28.40;25.57;;;15.60;99.90;;;;;;5067366;28;20324;-65
2021/09/27 01:56:44;;;;;;;28.70;24.30;;;15.70;99.90;;;;;;5053168;28;20167;-65
2021/09/27 01:59:35;;;;;;;28.20;24.30;;;15.70;99.90;;;;;;5032778;28;20173;-65
2021/09/27 02:02:21;;;;;;;31.00;28.03;;;15.70;99.90;;;;;;5037986;28;20186;-65
2021/09/27 02:05:13;;;;;;;29.77;27.07;;;15.60;99.90;;;;;;5072949;28;20728;-65
2021/09/27 02:08:04;;;;;;;26.40;23.67;;;15.60;99.90;;;;;;5065353;28;20289;-65
2021/09/27 02:10:48;;;;;;;27.07;24.37;;;15.50;99.90;;;;;;5052140;28;20664;-70
2021/09/27 02:13:23;;;;;;;27.43;24.60;;;15.50;99.90;;;;;;5063644;28;20714;-66
2021/09/27 02:16:00;;;;;;;29.77;26.53;;;15.40;99.90;;;;;;5072164;28;20177;-69
2021/09/27 02:18:45;;;;;;;28.00;25.00;;;15.40;99.90;;;;;;5061110;28;20206;-68
2021/09/27 02:21:19;;;;;;;30.30;27.30;;;15.30;99.90;;;;;;5053313;28;20174;-70
2021/09/27 02:23:56;;;;;;;28.40;25.17;;;15.30;99.90;;;;;;5067737;28;20177;-69
2021/09/27 02:26:22;;;;;;;29.00;25.87;;;15.20;99.90;;;;;;5067391;28;20181;-68
2021/09/27 02:28:48;;;;;;;29.27;26.27;;;15.20;99.90;;;;;;5073281;28;20218;-67
2021/09/27 02:32:01;;;;;;;29.70;26.73;;;15.20;99.90;;;;;;5062004;28;20201;-67
2021/09/27 02:34:38;;;;;;;30.67;27.70;;;15.30;99.90;;;;;;4988787;28;20184;-72
2021/09/27 02:37:18;;;;;;;31.70;28.63;;;15.20;99.90;;;;;;5027324;28;20218;-68
2021/09/27 02:39:49;;;;;;;31.20;27.90;;;15.30;99.90;;;;;;5067561;28;20185;-68
2021/09/27 02:42:40;;;;;;;31.10;27.80;;;15.20;99.90;;;;;;5072815;28;20174;-67
2021/09/27 02:45:08;;;;;;;31.60;28.43;;;15.30;99.90;;;;;;5033103;28;20222;-69
2021/09/27 02:47:39;;;;;;;31.27;27.90;;;15.20;99.90;;;;;;5069560;28;20275;-67
2021/09/27 02:50:07;;;;;;;33.33;27.33;;;15.10;99.90;;;;;;5072579;28;20163;-67
2021/09/27 02:52:32;;;;;;;34.03;30.50;;;15.00;99.90;;;;;;5071150;28;20770;-69
2021/09/27 02:55:04;;;;;;;33.33;30.13;;;15.00;99.90;;;;;;5072718;28;20639;-70
2021/09/27 02:57:49;;;;;;;37.40;33.60;;;15.00;99.90;;;;;;5056371;28;20198;-68
2021/09/27 03:00:35;;;;;;;58.10;53.53;;;14.90;99.90;;;;;;5052464;28;20175;-66
2021/09/27 03:03:19;;;;;;;58.90;54.07;;;14.90;99.90;;;;;;5032896;28;20529;-69
2021/09/27 03:06:23;;;;;;;34.90;29.63;;;15.00;99.90;;;;;;5034558;28;20199;-71
2021/09/27 03:09:21;;;;;;;33.33;29.93;;;15.00;99.90;;;;;;5071920;28;20229;-66
2021/09/27 03:12:05;;;;;;;38.63;35.13;;;15.00;99.90;;;;;;5049484;28;20660;-68
2021/09/27 03:14:49;;;;;;;34.47;30.70;;;15.00;99.90;;;;;;5052647;28;20253;-69
2021/09/27 03:17:38;;;;;;;36.53;32.93;;;15.00;99.90;;;;;;5064718;28;20549;-68
2021/09/27 03:20:25;;;;;;;39.33;35.40;;;15.00;99.90;;;;;;5062503;28;20178;-70
2021/09/27 03:23:16;;;;;;;36.90;33.40;;;15.00;99.90;;;;;;5052463;28;20182;-69
2021/09/27 03:26:19;;;;;;;35.23;31.60;;;15.00;99.90;;;;;;5066295;28;20206;-69
2021/09/27 03:29:25;;;;;;;32.17;28.77;;;15.00;99.90;;;;;;5072265;28;20185;-68
2021/09/27 03:32:15;;;;;;;33.93;29.90;;;15.00;99.90;;;;;;5059054;28;20202;-68
2021/09/27 03:35:00;;;;;;;33.27;29.67;;;15.00;99.90;;;;;;5070752;28;20184;-70
2021/09/27 03:37:29;;;;;;;35.63;30.17;;;15.00;99.90;;;;;;5092234;23;20246;-67
2021/09/27 03:39:57;;;;;;;33.27;29.87;;;14.90;99.90;;;;;;5050606;28;20217;-67
2021/09/27 03:42:33;;;;;;;33.67;29.80;;;14.90;99.90;;;;;;5051517;28;20189;-67
2021/09/27 03:45:17;;;;;;;33.10;29.33;;;14.90;99.90;;;;;;5045483;28;20206;-67
2021/09/27 03:47:57;;;;;;;38.20;29.93;;;14.90;99.90;;;;;;5036040;28;20561;-66
2021/09/27 03:50:36;;;;;;;35.33;29.70;;;14.90;99.90;;;;;;5051073;28;20514;-67
2021/09/27 03:53:08;;;;;;;39.23;30.60;;;14.80;99.90;;;;;;5044412;28;20182;-67
2021/09/27 03:55:55;;;;;;;34.43;30.77;;;14.80;99.90;;;;;;5031482;28;20179;-67
2021/09/27 03:58:33;;;;;;;38.37;33.33;;;14.80;99.90;;;;;;5039776;28;20292;-66
2021/09/27 04:01:10;;;;;;;38.57;34.63;;;14.70;99.90;;;;;;5050857;28;20182;-67
2021/09/27 04:03:42;;;;;;;34.87;31.20;;;14.70;99.90;;;;;;5040938;28;20209;-67
2021/09/27 04:06:30;;;;;;;38.70;34.77;;;14.70;99.90;;;;;;5031122;28;20290;-67
2021/09/27 04:08:58;;;;;;;34.07;30.43;;;14.70;99.90;;;;;;5043538;28;20199;-67
2021/09/27 04:11:41;;;;;;;33.10;29.83;;;14.80;99.90;;;;;;5032949;28;20175;-67
2021/09/27 04:14:31;;;;;;;40.93;36.77;;;14.80;99.90;;;;;;5044339;28;20194;-66
2021/09/27 04:17:13;;;;;;;38.00;33.33;;;14.90;99.90;;;;;;5037703;28;20655;-67
2021/09/27 04:20:14;;;;;;;34.47;30.87;;;14.90;99.90;;;;;;5030966;28;20566;-67
2021/09/27 04:22:54;;;;;;;34.23;29.13;;;14.90;99.90;;;;;;5049711;28;20197;-65
2021/09/27 04:25:30;;;;;;;36.23;32.53;;;14.90;99.90;;;;;;5054920;28;20209;-67
2021/09/27 04:28:12;;;;;;;37.27;33.30;;;15.00;99.90;;;;;;5034608;28;20194;-66
2021/09/27 04:30:57;;;;;;;33.73;29.37;;;15.00;99.90;;;;;;5034712;28;20258;-67
2021/09/27 04:33:42;;;;;;;37.20;33.47;;;15.00;99.90;;;;;;5034780;28;20167;-67
2021/09/27 04:36:22;;;;;;;36.60;33.00;;;15.10;99.90;;;;;;5008923;28;20258;-66
2021/09/27 04:38:50;;;;;;;34.40;31.03;;;15.10;99.90;;;;;;5054334;28;20229;-66
2021/09/27 04:41:38;;;;;;;35.77;31.97;;;15.20;99.90;;;;;;5047856;28;20574;-66
2021/09/27 04:44:27;;;;;;;30.70;27.40;;;15.20;99.90;;;;;;5038366;28;20179;-67
2021/09/27 04:47:11;;;;;;;30.07;26.97;;;15.30;99.90;;;;;;5054344;28;20257;-67
2021/09/27 04:49:52;;;;;;;31.30;28.17;;;15.30;99.90;;;;;;5044347;28;20184;-67
2021/09/27 04:52:35;;;;;;;28.57;25.57;;;15.40;99.90;;;;;;5034348;28;20172;-67
2021/09/27 04:55:36;;;;;;;36.07;32.67;;;15.50;99.90;;;;;;5045026;28;20542;-67
2021/09/27 04:58:46;;;;;;;27.17;23.80;;;15.50;99.90;;;;;;5020046;28;20292;-67
2021/09/27 05:01:31;;;;;;;30.87;27.97;;;15.50;99.90;;;;;;5033890;28;20184;-67
2021/09/27 05:04:24;;;;;;;27.43;24.60;;;15.60;99.90;;;;;;5034366;28;20174;-67
2021/09/27 05:07:04;;;;;;;27.10;24.40;;;15.60;99.90;;;;;;5054127;28;20166;-67
2021/09/27 05:10:08;;;;;;;25.30;22.80;;;15.60;99.90;;;;;;5049174;28;20168;-67
2021/09/27 05:13:06;;;;;;;28.97;26.10;;;15.70;99.90;;;;;;5040565;28;20244;-67
2021/09/27 05:15:50;;;;;;;26.97;24.27;;;15.70;99.90;;;;;;5054042;28;20241;-67
2021/09/27 05:18:52;;;;;;;39.70;36.27;;;15.70;99.90;;;;;;5041709;28;20207;-66
2021/09/27 05:21:38;;;;;;;32.57;29.40;;;15.60;99.90;;;;;;5032869;28;20174;-67
2021/09/27 05:24:22;;;;;;;36.27;31.77;;;15.60;99.90;;;;;;5033962;28;20711;-67
2021/09/27 05:27:19;;;;;;;38.27;34.97;;;15.60;99.90;;;;;;5033730;28;20512;-67
2021/09/27 05:29:47;;;;;;;34.03;30.47;;;15.50;99.90;;;;;;5033392;28;20171;-66
2021/09/27 05:32:19;;;;;;;30.87;27.67;;;15.50;99.90;;;;;;5034510;28;20171;-67
2021/09/27 05:35:14;;;;;;;31.20;28.10;;;15.50;99.90;;;;;;5052998;28;20174;-66
2021/09/27 05:38:08;;;;;;;30.20;27.00;;;15.40;99.90;;;;;;5049011;28;20215;-66
2021/09/27 05:40:46;;;;;;;34.97;31.67;;;15.40;99.90;;;;;;5037858;28;20202;-66
2021/09/27 05:43:23;;;;;;;54.90;50.67;;;15.30;99.90;;;;;;5053466;28;20224;-67
2021/09/27 05:45:54;;;;;;;39.40;35.73;;;15.30;99.90;;;;;;5046598;28;20207;-65
2021/09/27 05:48:41;;;;;;;37.23;33.53;;;15.30;99.90;;;;;;5033201;28;20219;-67
2021/09/27 05:51:12;;;;;;;36.43;30.37;;;15.20;99.90;;;;;;5040832;28;20175;-67
2021/09/27 05:53:48;;;;;;;33.97;30.27;;;15.20;99.90;;;;;;5045062;28;20175;-67
2021/09/27 05:56:24;;;;;;;33.37;29.87;;;15.20;99.90;;;;;;5040372;28;20174;-67
2021/09/27 05:59:07;;;;;;;35.83;31.23;;;15.30;99.90;;;;;;5035711;28;20191;-65
2021/09/27 06:01:42;;;;;;;37.03;33.27;;;15.20;99.90;;;;;;5038842;28;20758;-67
2021/09/27 06:04:34;;;;;;;42.53;38.80;;;15.30;99.90;;;;;;5052727;28;20546;-67
2021/09/27 06:07:08;;;;;;;40.60;36.70;;;15.30;99.90;;;;;;5036051;28;20179;-67
2021/09/27 06:10:02;;;;;;;34.13;30.30;;;15.30;99.90;;;;;;5032602;28;20168;-68
2021/09/27 06:12:48;;;;;;;32.00;28.70;;;15.40;99.90;;;;;;5035044;28;20175;-66
2021/09/27 06:15:16;;;;;;;27.57;24.87;;;15.50;99.90;;;;;;5039109;28;20191;-67
2021/09/27 06:18:04;;;;;;;27.43;24.80;;;15.50;99.90;;;;;;5032363;28;20200;-67
2021/09/27 06:20:36;;;;;;;29.83;26.70;;;15.60;99.90;;;;;;5032248;28;20746;-66
2021/09/27 06:23:20;;;;;;;25.47;22.73;;;15.70;99.90;;;;;;5032402;28;20171;-67
2021/09/27 06:26:05;;;;;;;24.07;21.73;;;15.80;99.90;;;;;;5032543;28;20668;-66
2021/09/27 06:28:57;;;;;;;24.27;21.67;;;15.80;99.90;;;;;;5036254;28;20236;-67
2021/09/27 06:31:40;;;;;;;21.83;19.83;;;15.90;99.90;;;;;;5051062;28;20679;-66
2021/09/27 06:34:45;;;;;;;22.73;20.53;;;16.00;99.90;;;;;;5043867;28;20179;-68
2021/09/27 06:37:11;;;;;;;22.23;20.07;;;16.10;99.90;;;;;;5018996;28;20187;-67
2021/09/27 06:39:38;;;;;;;23.23;20.27;;;16.20;99.90;;;;;;5043564;28;20171;-68
2021/09/27 06:42:04;;;;;;;20.73;18.87;;;16.30;99.90;;;;;;5051843;28;20171;-67
2021/09/27 06:44:29;;;;;;;21.97;19.67;;;16.60;99.90;;;;;;5041755;28;20691;-67
2021/09/27 06:46:55;;;;;;;17.73;16.03;;;16.90;99.90;;;;;;5031360;28;20222;-67
2021/09/27 06:49:21;;;;;;;17.63;15.63;;;17.30;99.90;;;;;;5038957;28;20607;-67
2021/09/27 06:51:47;;;;;;;17.20;15.43;;;17.70;99.90;;;;;;5051784;28;20250;-67
2021/09/27 06:54:14;;;;;;;17.33;15.73;;;17.90;99.90;;;;;;5045219;28;20603;-67
2021/09/27 06:56:41;;;;;;;16.80;15.13;;;18.10;99.90;;;;;;5035462;28;20171;-67
2021/09/27 06:59:07;;;;;;;17.07;15.67;;;18.20;99.90;;;;;;5051417;28;20198;-67
2021/09/27 07:01:33;;;;;;;18.03;16.40;;;18.30;99.90;;;;;;5049415;28;20185;-67
2021/09/27 07:03:59;;;;;;;19.20;15.73;;;18.30;99.90;;;;;;5031578;28;20190;-67
2021/09/27 07:06:25;;;;;;;18.80;16.90;;;18.30;99.90;;;;;;5030524;28;20163;-67
2021/09/27 07:08:50;;;;;;;18.97;17.27;;;18.30;99.90;;;;;;5051483;28;20533;-66
2021/09/27 07:11:16;;;;;;;18.50;16.70;;;18.30;99.90;;;;;;5051790;28;20205;-66
2021/09/27 07:13:43;;;;;;;21.30;17.20;;;18.50;99.90;;;;;;5037940;28;20175;-67
2021/09/27 07:16:09;;;;;;;18.57;16.87;;;18.40;99.90;;;;;;5046668;28;20517;-66
2021/09/27 07:18:34;;;;;;;18.37;16.23;;;18.40;99.90;;;;;;5050098;28;20202;-67
2021/09/27 07:21:00;;;;;;;17.97;16.30;;;18.60;99.90;;;;;;5031307;28;20644;-65
2021/09/27 07:23:27;;;;;;;16.70;14.93;;;18.80;99.90;;;;;;5044233;28;20193;-67
2021/09/27 07:25:53;;;;;;;17.10;15.40;;;19.10;99.90;;;;;;5042167;28;20265;-67
2021/09/27 07:28:21;;;;;;;16.27;14.70;;;19.50;99.90;;;;;;5045620;28;20194;-66
2021/09/27 07:30:48;;;;;;;17.53;15.33;;;19.50;99.90;;;;;;5050571;28;20670;-66
2021/09/27 07:33:15;;;;;;;16.53;15.00;;;19.30;99.90;;;;;;5051696;28;20448;-68
2021/09/27 07:35:41;;;;;;;17.80;16.07;;;19.20;99.90;;;;;;5051547;28;20171;-66
2021/09/27 07:38:06;;;;;;;18.07;16.30;;;19.10;99.90;;;;;;5051131;28;20206;-66
2021/09/27 07:40:36;;;;;;;16.90;15.50;;;19.10;99.90;;;;;;5051135;28;20182;-66
2021/09/27 07:43:02;;;;;;;16.13;14.67;;;19.40;99.90;;;;;;5051447;28;20171;-67
2021/09/27 07:45:33;;;;;;;16.57;15.00;;;19.80;99.90;;;;;;5051423;28;20705;-66
2021/09/27 07:47:59;;;;;;;16.03;14.67;;;20.00;99.90;;;;;;5051217;28;20557;-67
2021/09/27 07:50:25;;;;;;;16.30;14.80;;;20.00;99.90;;;;;;5051038;28;20582;-65
2021/09/27 07:52:51;;;;;;;16.80;15.33;;;20.10;99.90;;;;;;5051143;28;20262;-67
2021/09/27 07:55:17;;;;;;;16.87;15.50;;;20.20;99.90;;;;;;5051518;28;20198;-67
2021/09/27 07:57:42;;;;;;;15.93;14.63;;;20.30;99.90;;;;;;5053724;28;20691;-67
2021/09/27 08:00:09;;;;;;;18.57;15.50;;;20.20;99.90;;;;;;5054985;28;20240;-67
2021/09/27 08:02:35;;;;;;;16.37;14.97;;;20.10;99.90;;;;;;5055276;28;20209;-66
2021/09/27 08:05:01;;;;;;;16.27;14.80;;;20.10;99.90;;;;;;5055107;28;20218;-68
2021/09/27 08:07:26;;;;;;;16.27;14.83;;;20.00;99.90;;;;;;5055118;28;20198;-67
2021/09/27 08:09:52;;;;;;;17.00;15.60;;;19.80;99.90;;;;;;5054763;28;20170;-67
2021/09/27 08:12:18;;;;;;;16.40;14.93;;;19.70;99.90;;;;;;5054935;28;20171;-66
2021/09/27 08:14:44;;;;;;;16.70;15.20;;;19.60;99.90;;;;;;5054957;28;20175;-66
2021/09/27 08:17:09;;;;;;;15.90;14.50;;;19.90;99.90;;;;;;5055288;28;20175;-66
2021/09/27 08:19:39;;;;;;;16.43;14.73;;;20.20;99.90;;;;;;5054806;28;20647;-67
2021/09/27 08:22:05;;;;;;;15.13;13.50;;;20.60;99.90;;;;;;5054856;28;20542;-67
2021/09/27 08:24:31;;;;;;;14.00;12.60;;;20.90;99.90;;;;;;5054913;28;20186;-67
2021/09/27 08:26:58;;;;;;;13.97;12.53;;;21.10;99.90;;;;;;5054714;28;20697;-67
2021/09/27 08:29:24;;;;;;;13.60;12.27;;;21.50;99.90;;;;;;5054449;28;20660;-67
2021/09/27 08:31:49;;;;;;;12.60;11.48;;;21.80;99.90;;;;;;5054628;28;20171;-67
2021/09/27 08:34:16;;;;;;;12.18;11.13;;;22.20;99.90;;;;;;5054598;28;20587;-66
2021/09/27 08:36:42;;;;;;;13.23;11.53;;;22.40;99.90;;;;;;5054688;28;20178;-66
2021/09/27 08:39:08;;;;;;;12.80;11.75;;;22.60;99.90;;;;;;5054250;28;20207;-67
2021/09/27 08:41:52;;;;;;;12.23;11.13;;;22.70;99.90;;;;;;5053898;28;20264;-65
2021/09/27 08:44:45;;;;;;;11.35;10.43;;;23.00;99.90;;;;;;5054376;28;20183;-67
2021/09/27 08:47:20;;;;;;;11.50;10.40;;;23.40;99.90;;;;;;5054440;28;20167;-67
2021/09/27 08:49:55;;;;;;;15.93;11.80;;;23.90;99.90;;;;;;5054331;28;20163;-67
2021/09/27 08:52:23;;;;;;;12.07;10.88;;;23.80;99.90;;;;;;5054352;28;20176;-67
2021/09/27 08:54:51;;;;;;;12.75;10.82;;;23.80;99.90;;;;;;5054339;28;20224;-67
2021/09/27 08:57:35;;;;;;;11.52;10.52;;;23.80;99.90;;;;;;5054343;28;20696;-67
2021/09/27 09:00:07;;;;;;;11.55;10.35;;;23.70;99.90;;;;;;5053927;28;20175;-67
2021/09/27 09:02:56;;;;;;;12.43;11.40;;;23.70;99.90;;;;;;5054242;28;20182;-67
2021/09/27 09:05:27;;;;;;;12.15;11.00;;;23.50;99.90;;;;;;5054067;28;20202;-67
2021/09/27 09:07:55;;;;;;;12.15;10.93;;;23.20;99.90;;;;;;5050637;28;20191;-67
2021/09/27 09:10:50;;;;;;;12.67;11.37;;;23.00;99.90;;;;;;5044130;28;20625;-67
2021/09/27 09:13:22;;;;;;;11.50;10.40;;;22.80;99.90;;;;;;5033932;28;20187;-67
2021/09/27 09:16:09;;;;;;;11.13;10.02;;;22.70;99.90;;;;;;5052944;28;20183;-67
2021/09/27 09:18:53;;;;;;;11.73;10.65;;;23.00;99.90;;;;;;5054191;28;20213;-68
2021/09/27 09:21:42;;;;;;;10.63;9.50;;;23.30;99.90;;;;;;5037340;28;20274;-67
2021/09/27 09:24:31;;;;;;;11.02;9.68;;;23.50;99.90;;;;;;5033728;28;20585;-67
2021/09/27 09:27:02;;;;;;;9.57;8.48;;;23.60;99.90;;;;;;5048487;28;20186;-67
2021/09/27 09:29:32;;;;;;;10.23;8.82;;;23.90;99.90;;;;;;5036692;28;20175;-66
2021/09/27 09:32:02;;;;;;;10.13;9.13;;;24.20;99.90;;;;;;5053247;28;20171;-67
2021/09/27 09:34:35;;;;;;;9.70;8.80;;;24.40;99.90;;;;;;5039028;28;20658;-67
2021/09/27 09:37:11;;;;;;;9.80;8.68;;;24.30;99.90;;;;;;5033352;28;20195;-66
2021/09/27 09:39:53;;;;;;;9.52;8.50;;;24.00;99.90;;;;;;5116398;23;20657;-65
2021/09/27 09:42:19;;;;;;;11.63;9.05;;;23.80;99.90;;;;;;5053215;28;20722;-66
2021/09/27 09:44:48;;;;;;;8.52;7.72;;;23.60;99.90;;;;;;5037635;28;20290;-65
2021/09/27 09:47:34;;;;;;;9.18;8.38;;;23.40;99.90;;;;;;5033360;28;20262;-65
2021/09/27 09:50:05;;;;;;;7.63;6.90;;;23.20;99.90;;;;;;5029379;28;20283;-65
2021/09/27 09:52:39;;;;;;;7.72;7.03;;;23.00;99.90;;;;;;5033243;28;20171;-65
2021/09/27 09:55:43;;;;;;;7.73;7.00;;;22.80;99.90;;;;;;5016183;28;20184;-65
2021/09/27 09:58:26;;;;;;;6.65;6.10;;;22.60;99.90;;;;;;5011009;28;20215;-65
2021/09/27 10:00:52;;;;;;;7.63;6.87;;;22.50;99.90;;;;;;5012641;28;20168;-65
2021/09/27 10:03:26;;;;;;;8.00;7.32;;;22.40;99.90;;;;;;5020988;28;20265;-66
2021/09/27 10:06:03;;;;;;;7.53;6.93;;;22.40;99.90;;;;;;5032786;28;20684;-65
2021/09/27 10:08:29;;;;;;;6.85;6.35;;;22.40;99.90;;;;;;5023681;28;20213;-65
2021/09/27 10:11:02;;;;;;;6.77;6.37;;;22.50;99.90;;;;;;5012520;28;20172;-65
2021/09/27 10:13:33;;;;;;;6.63;6.13;;;22.60;99.90;;;;;;5020843;28;20184;-66
2021/09/27 10:15:59;;;;;;;6.88;6.38;;;22.80;99.90;;;;;;5031867;28;20183;-65
2021/09/27 10:18:27;;;;;;;6.43;5.88;;;23.10;99.90;;;;;;5032537;28;20289;-66
2021/09/27 10:21:08;;;;;;;6.30;5.82;;;23.30;99.90;;;;;;5013454;28;20286;-66
2021/09/27 10:23:40;;;;;;;6.50;5.80;;;23.50;99.90;;;;;;5012876;28;20180;-65
2021/09/27 10:26:35;;;;;;;6.00;5.60;;;23.40;99.90;;;;;;5016657;28;20203;-65
2021/09/27 10:29:16;;;;;;;6.25;5.75;;;23.40;99.90;;;;;;5011669;28;20247;-65
2021/09/27 10:31:54;;;;;;;6.95;6.43;;;23.10;99.90;;;;;;5021767;28;20185;-66
2021/09/27 10:34:22;;;;;;;6.67;6.07;;;22.80;99.90;;;;;;5031344;28;20167;-65
2021/09/27 10:36:53;;;;;;;6.22;5.72;;;22.70;99.90;;;;;;5020587;28;20199;-66
2021/09/27 10:39:20;;;;;;;6.55;6.05;;;22.80;99.90;;;;;;5012248;28;20216;-66
2021/09/27 10:42:07;;;;;;;7.05;6.55;;;22.80;99.90;;;;;;5016293;28;20278;-65
2021/09/27 10:44:50;;;;;;;6.78;6.28;;;22.80;99.90;;;;;;5012681;28;20573;-65
2021/09/27 10:47:19;;;;;;;7.03;6.53;;;22.90;99.90;;;;;;5024670;28;20219;-65
2021/09/27 10:50:04;;;;;;;7.13;6.70;;;23.00;99.90;;;;;;5031684;28;20187;-66
2021/09/27 10:52:50;;;;;;;6.50;6.00;;;23.20;99.90;;;;;;5017890;28;20255;-66
2021/09/27 10:55:34;;;;;;;6.05;5.55;;;23.50;99.90;;;;;;5021215;28;20202;-65
2021/09/27 10:58:10;;;;;;;6.70;6.20;;;23.80;99.90;;;;;;5031652;28;20195;-66
2021/09/27 11:00:47;;;;;;;6.63;6.07;;;24.10;99.90;;;;;;5013199;28;20180;-65
2021/09/27 11:03:21;;;;;;;5.90;5.40;;;24.30;99.90;;;;;;5012280;28;20183;-66
2021/09/27 11:06:20;;;;;;;6.50;5.90;;;24.60;99.90;;;;;;5030731;28;20206;-65
2021/09/27 11:08:50;;;;;;;6.07;5.57;;;24.70;99.90;;;;;;5030203;28;20530;-66
2021/09/27 11:11:27;;;;;;;6.78;6.20;;;24.80;99.90;;;;;;5031628;28;20221;-66
2021/09/27 11:13:54;;;;;;;6.07;5.57;;;24.60;99.90;;;;;;5028729;28;20198;-66
2021/09/27 11:16:32;;;;;;;5.97;5.47;;;24.50;99.90;;;;;;5011847;28;20637;-64
2021/09/27 11:19:03;;;;;;;5.63;5.13;;;24.20;99.90;;;;;;5013922;28;20226;-65
2021/09/27 11:21:35;;;;;;;5.88;5.38;;;24.30;99.90;;;;;;5031818;28;20167;-63
2021/09/27 11:24:21;;;;;;;6.15;5.65;;;24.20;99.90;;;;;;5028513;28;20183;-65
2021/09/27 11:27:26;;;;;;;6.22;5.72;;;24.20;99.90;;;;;;5011685;28;20173;-63
2021/09/27 11:30:17;;;;;;;6.15;5.22;;;24.10;99.90;;;;;;5028561;28;20186;-66
2021/09/27 11:33:04;;;;;;;6.35;5.85;;;24.30;99.90;;;;;;5031095;28;20163;-64
2021/09/27 11:35:30;;;;;;;6.00;5.57;;;24.60;99.90;;;;;;5011720;28;20184;-65
2021/09/27 11:38:33;;;;;;;7.55;4.95;;;25.00;99.90;;;;;;5011743;28;20246;-64
2021/09/27 11:41:08;;;;;;;5.70;5.25;;;25.10;99.90;;;;;;5029677;28;20206;-65
2021/09/27 11:43:55;;;;;;;6.70;6.05;;;25.10;99.90;;;;;;5026009;28;20532;-65
2021/09/27 11:46:30;;;;;;;5.70;5.20;;;25.20;99.90;;;;;;5011681;28;20291;-66
2021/09/27 11:49:23;;;;;;;5.40;5.00;;;25.20;99.90;;;;;;5018834;28;20193;-64
2021/09/27 11:52:11;;;;;;;5.95;5.57;;;24.60;99.90;;;;;;5030909;28;20188;-64
2021/09/27 11:54:57;;;;;;;5.60;5.22;;;24.20;99.90;;;;;;5029664;28;20210;-65
2021/09/27 11:57:47;;;;;;;5.75;5.32;;;24.00;99.90;;;;;;5024926;28;20544;-64
2021/09/27 12:00:23;;;;;;;5.68;5.28;;;23.90;99.90;;;;;;5013451;28;20176;-64
2021/09/27 12:02:57;;;;;;;5.43;5.03;;;23.70;99.90;;;;;;5031174;28;20171;-64
2021/09/27 12:05:29;;;;;;;5.57;5.07;;;23.60;99.90;;;;;;5013220;28;20605;-65
2021/09/27 12:08:07;;;;;;;5.85;5.45;;;23.80;99.90;;;;;;5011231;28;20661;-63
2021/09/27 12:10:43;;;;;;;5.70;5.30;;;23.80;99.90;;;;;;5029598;28;20237;-64
2021/09/27 12:13:19;;;;;;;5.75;5.38;;;23.70;99.90;;;;;;5031043;28;20640;-65
2021/09/27 12:15:50;;;;;;;5.57;5.28;;;23.90;99.90;;;;;;5030967;28;20191;-65
2021/09/27 12:18:43;;;;;;;6.47;5.88;;;24.10;99.90;;;;;;5012744;28;20207;-66
2021/09/27 12:21:19;;;;;;;5.63;5.10;;;24.30;99.90;;;;;;5011116;28;20180;-66
2021/09/27 12:23:50;;;;;;;5.30;5.00;;;24.40;99.90;;;;;;5030876;28;20179;-63
2021/09/27 12:26:19;;;;;;;5.68;5.18;;;24.50;99.90;;;;;;5030232;28;20230;-64
2021/09/27 12:28:45;;;;;;;6.25;5.72;;;24.70;99.90;;;;;;5011136;28;20192;-64
2021/09/27 12:31:11;;;;;;;5.63;5.30;;;24.80;99.90;;;;;;5011081;28;20185;-65
2021/09/27 12:33:38;;;;;;;5.75;5.30;;;24.80;99.90;;;;;;5029112;28;20246;-65
2021/09/27 12:36:19;;;;;;;5.85;5.35;;;24.70;99.90;;;;;;5030674;28;20747;-66
2021/09/27 12:38:51;;;;;;;5.43;5.03;;;24.80;99.90;;;;;;5010977;28;20224;-65
2021/09/27 12:41:20;;;;;;;5.47;5.07;;;24.80;99.90;;;;;;5011207;28;20184;-64
2021/09/27 12:43:47;;;;;;;6.13;5.70;;;24.70;99.90;;;;;;5031186;28;20742;-65
2021/09/27 12:46:19;;;;;;;5.68;5.28;;;24.60;99.90;;;;;;5034321;28;20217;-65
2021/09/27 12:48:49;;;;;;;6.28;5.88;;;24.40;99.90;;;;;;5032511;28;20206;-65
2021/09/27 12:51:23;;;;;;;6.55;5.95;;;24.00;99.90;;;;;;5034175;28;20434;-65
2021/09/27 12:54:23;;;;;;;5.68;5.25;;;23.80;99.90;;;;;;5015442;28;20641;-66
2021/09/27 12:56:50;;;;;;;7.55;5.25;;;23.50;99.90;;;;;;5017785;28;20767;-65
2021/09/27 12:59:19;;;;;;;5.97;5.55;;;23.50;99.90;;;;;;5014071;28;20693;-64
2021/09/27 13:01:50;;;;;;;5.70;5.40;;;23.50;99.90;;;;;;5032949;28;20542;-65
2021/09/27 13:04:33;;;;;;;5.93;5.50;;;23.50;99.90;;;;;;5034075;28;20571;-65
2021/09/27 13:07:06;;;;;;;5.75;5.35;;;23.30;99.90;;;;;;5014177;28;20184;-66
2021/09/27 13:09:37;;;;;;;5.83;5.40;;;22.90;99.90;;;;;;5013984;28;20192;-64
2021/09/27 13:12:15;;;;;;;6.32;5.78;;;22.80;99.90;;;;;;5014144;28;20184;-65
2021/09/27 13:14:45;;;;;;;6.20;5.70;;;22.80;99.90;;;;;;5014484;28;20183;-65
2021/09/27 13:17:23;;;;;;;6.20;5.70;;;22.60;99.90;;;;;;5014132;28;20172;-65
2021/09/27 13:19:52;;;;;;;6.27;5.87;;;22.60;99.90;;;;;;5014133;28;20199;-65
2021/09/27 13:22:36;;;;;;;6.73;6.17;;;22.40;99.90;;;;;;5033752;28;20182;-65
2021/09/27 13:25:08;;;;;;;5.90;5.37;;;22.30;99.90;;;;;;5031701;28;20210;-65